sensor_id;sensor_type;location;lat;lon;timestamp;pressure;altitude;pressure_sealevel;temperature;humidity
74913;BME280;63878;55.624;37.304;2023-07-13T00:03:04;98090.28;;;10.85;61.17
74913;BME280;63878;55.624;37.304;2023-07-13T00:13:05;98102.69;;;11.08;61.91
74913;BME280;63878;55.624;37.304;2023-07-13T00:23:05;98098.41;;;10.99;62.17
74913;BME280;63878;55.624;37.304;2023-07-13T00:33:06;98083.22;;;10.85;60.79
74913;BME280;63878;55.624;37.304;2023-07-13T00:43:15;98086.16;;;10.90;62.46
74913;BME280;63878;55.624;37.304;2023-07-13T00:53:18;98087.63;;;10.76;60.98
74913;BME280;63878;55.624;37.304;2023-07-13T01:03:19;98105.03;;;10.45;61.44
74913;BME280;63878;55.624;37.304;2023-07-13T01:13:20;98098.50;;;10.23;62.39
74913;BME280;63878;55.624;37.304;2023-07-13T01:23:22;98090.13;;;10.27;62.33
74913;BME280;63878;55.624;37.304;2023-07-13T01:33:25;98090.03;;;10.45;62.99
74913;BME280;63878;55.624;37.304;2023-07-13T01:43:26;98076.66;;;10.39;61.78
74913;BME280;63878;55.624;37.304;2023-07-13T01:53:26;98070.03;;;10.35;62.31
74913;BME280;63878;55.624;37.304;2023-07-13T02:03:27;98045.78;;;10.31;62.62
74913;BME280;63878;55.624;37.304;2023-07-13T02:13:27;98054.91;;;10.53;62.45
74913;BME280;63878;55.624;37.304;2023-07-13T02:23:28;98051.47;;;10.61;61.58
74913;BME280;63878;55.624;37.304;2023-07-13T02:33:28;98047.34;;;10.58;62.92
74913;BME280;63878;55.624;37.304;2023-07-13T02:43:29;98048.78;;;10.44;62.35
74913;BME280;63878;55.624;37.304;2023-07-13T02:53:30;98048.44;;;10.39;62.85
74913;BME280;63878;55.624;37.304;2023-07-13T03:03:30;98047.00;;;10.53;62.43
74913;BME280;63878;55.624;37.304;2023-07-13T03:13:31;98032.03;;;10.70;63.12
74913;BME280;63878;55.624;37.304;2023-07-13T03:23:32;98033.69;;;10.71;63.05
74913;BME280;63878;55.624;37.304;2023-07-13T03:33:33;98041.63;;;10.79;63.00
74913;BME280;63878;55.624;37.304;2023-07-13T03:43:33;98040.28;;;10.83;62.52
74913;BME280;63878;55.624;37.304;2023-07-13T03:53:38;98047.75;;;11.12;62.33
74913;BME280;63878;55.624;37.304;2023-07-13T04:03:39;98043.91;;;11.23;62.85
74913;BME280;63878;55.624;37.304;2023-07-13T04:13:40;98052.69;;;11.15;61.99
74913;BME280;63878;55.624;37.304;2023-07-13T04:23:40;98051.69;;;11.16;62.41
74913;BME280;63878;55.624;37.304;2023-07-13T04:33:41;98073.81;;;11.07;62.20
74913;BME280;63878;55.624;37.304;2023-07-13T04:43:41;98069.69;;;11.21;61.56
74913;BME280;63878;55.624;37.304;2023-07-13T04:53:42;98075.13;;;11.35;61.83
74913;BME280;63878;55.624;37.304;2023-07-13T05:03:42;98061.69;;;11.86;60.98
74913;BME280;63878;55.624;37.304;2023-07-13T05:13:43;98060.75;;;12.10;60.99
74913;BME280;63878;55.624;37.304;2023-07-13T05:23:43;98051.06;;;12.33;60.69
74913;BME280;63878;55.624;37.304;2023-07-13T05:33:44;98048.56;;;12.40;59.84
74913;BME280;63878;55.624;37.304;2023-07-13T05:43:44;98055.44;;;12.80;58.86
74913;BME280;63878;55.624;37.304;2023-07-13T05:53:45;98058.44;;;13.00;58.62
74913;BME280;63878;55.624;37.304;2023-07-13T06:03:46;98044.34;;;13.90;57.48
74913;BME280;63878;55.624;37.304;2023-07-13T06:13:47;98043.25;;;12.94;55.76
74913;BME280;63878;55.624;37.304;2023-07-13T06:23:50;98046.81;;;12.55;56.73
74913;BME280;63878;55.624;37.304;2023-07-13T06:33:50;98032.66;;;12.94;54.64
74913;BME280;63878;55.624;37.304;2023-07-13T06:43:51;98028.97;;;12.80;55.46
74913;BME280;63878;55.624;37.304;2023-07-13T06:53:52;98039.00;;;12.85;55.90
74913;BME280;63878;55.624;37.304;2023-07-13T07:03:52;98031.97;;;12.69;55.17
74913;BME280;63878;55.624;37.304;2023-07-13T07:13:53;98034.19;;;12.88;56.49
74913;BME280;63878;55.624;37.304;2023-07-13T07:23:54;98031.50;;;13.11;55.59
74913;BME280;63878;55.624;37.304;2023-07-13T07:33:54;98038.84;;;13.62;54.29
74913;BME280;63878;55.624;37.304;2023-07-13T07:43:55;98058.13;;;13.18;57.58
74913;BME280;63878;55.624;37.304;2023-07-13T07:53:55;98065.31;;;13.09;54.08
74913;BME280;63878;55.624;37.304;2023-07-13T08:03:56;98073.28;;;12.86;55.24
74913;BME280;63878;55.624;37.304;2023-07-13T08:13:56;98066.84;;;12.50;57.69
74913;BME280;63878;55.624;37.304;2023-07-13T08:23:57;98065.75;;;12.36;59.51
74913;BME280;63878;55.624;37.304;2023-07-13T08:33:58;98060.97;;;12.39;60.53
74913;BME280;63878;55.624;37.304;2023-07-13T08:43:59;98057.88;;;12.28;60.58
74913;BME280;63878;55.624;37.304;2023-07-13T08:54:03;98061.53;;;12.27;60.69
74913;BME280;63878;55.624;37.304;2023-07-13T09:04:11;98059.88;;;12.26;60.56
74913;BME280;63878;55.624;37.304;2023-07-13T09:34:35;98084.94;;;12.69;61.73
74913;BME280;63878;55.624;37.304;2023-07-13T09:44:39;98102.47;;;12.70;63.06
74913;BME280;63878;55.624;37.304;2023-07-13T09:54:43;98102.34;;;12.63;61.85
74913;BME280;63878;55.624;37.304;2023-07-13T10:04:44;98096.34;;;12.47;61.68
74913;BME280;63878;55.624;37.304;2023-07-13T10:14:45;98093.88;;;12.37;63.60
74913;BME280;63878;55.624;37.304;2023-07-13T10:24:46;98093.22;;;12.35;64.15
74913;BME280;63878;55.624;37.304;2023-07-13T10:34:47;98097.56;;;12.28;64.51
74913;BME280;63878;55.624;37.304;2023-07-13T10:44:48;98100.25;;;12.20;63.88
74913;BME280;63878;55.624;37.304;2023-07-13T10:54:48;98114.00;;;12.07;63.73
74913;BME280;63878;55.624;37.304;2023-07-13T11:04:53;98125.78;;;11.96;63.54
74913;BME280;63878;55.624;37.304;2023-07-13T11:24:59;98104.13;;;12.01;64.17
74913;BME280;63878;55.624;37.304;2023-07-13T11:35:00;98091.25;;;11.89;64.85
74913;BME280;63878;55.624;37.304;2023-07-13T11:45:01;98109.72;;;11.98;67.89
74913;BME280;63878;55.624;37.304;2023-07-13T11:55:04;98097.84;;;11.94;67.55
74913;BME280;63878;55.624;37.304;2023-07-13T12:05:15;98053.63;;;11.55;67.23
74913;BME280;63878;55.624;37.304;2023-07-13T12:15:17;98096.22;;;11.84;62.90
74913;BME280;63878;55.624;37.304;2023-07-13T12:25:19;98075.22;;;12.30;63.29
74913;BME280;63878;55.624;37.304;2023-07-13T12:35:20;98085.56;;;13.25;62.96
74913;BME280;63878;55.624;37.304;2023-07-13T12:45:24;98074.41;;;13.52;62.69
74913;BME280;63878;55.624;37.304;2023-07-13T12:55:24;98074.16;;;13.77;63.36
74913;BME280;63878;55.624;37.304;2023-07-13T13:05:26;98089.59;;;12.36;61.38
74913;BME280;63878;55.624;37.304;2023-07-13T13:15:27;98096.69;;;11.96;63.80
74913;BME280;63878;55.624;37.304;2023-07-13T13:25:27;98090.78;;;11.78;64.10
74913;BME280;63878;55.624;37.304;2023-07-13T13:35:29;98085.69;;;11.52;65.82
74913;BME280;63878;55.624;37.304;2023-07-13T13:45:30;98081.72;;;11.48;65.75
74913;BME280;63878;55.624;37.304;2023-07-13T13:55:31;98064.38;;;11.45;66.55
74913;BME280;63878;55.624;37.304;2023-07-13T14:05:32;98055.66;;;11.28;66.96
74913;BME280;63878;55.624;37.304;2023-07-13T14:15:32;98042.44;;;11.20;67.47
74913;BME280;63878;55.624;37.304;2023-07-13T14:25:33;98059.91;;;11.38;68.07
74913;BME280;63878;55.624;37.304;2023-07-13T14:35:33;98054.13;;;11.42;68.57
74913;BME280;63878;55.624;37.304;2023-07-13T14:45:35;98044.22;;;11.52;65.41
74913;BME280;63878;55.624;37.304;2023-07-13T14:55:37;98055.97;;;11.42;65.75
74913;BME280;63878;55.624;37.304;2023-07-13T15:05:38;98049.03;;;12.12;65.51
74913;BME280;63878;55.624;37.304;2023-07-13T15:15:40;98052.31;;;11.51;65.34
74913;BME280;63878;55.624;37.304;2023-07-13T15:25:43;98059.25;;;11.44;66.26
74913;BME280;63878;55.624;37.304;2023-07-13T15:35:45;98051.84;;;11.31;67.05
74913;BME280;63878;55.624;37.304;2023-07-13T15:45:46;98049.19;;;11.31;67.57
74913;BME280;63878;55.624;37.304;2023-07-13T15:55:47;98042.06;;;11.56;66.37
74913;BME280;63878;55.624;37.304;2023-07-13T16:05:49;98049.00;;;11.65;66.48
74913;BME280;63878;55.624;37.304;2023-07-13T16:15:50;98070.50;;;12.49;70.61
74913;BME280;63878;55.624;37.304;2023-07-13T16:25:51;98055.69;;;12.93;71.64
74913;BME280;63878;55.624;37.304;2023-07-13T16:35:51;98055.66;;;12.08;66.35
74913;BME280;63878;55.624;37.304;2023-07-13T16:45:55;98040.47;;;11.39;68.99
74913;BME280;63878;55.624;37.304;2023-07-13T16:55:58;98054.31;;;11.24;71.63
74913;BME280;63878;55.624;37.304;2023-07-13T17:06:00;98056.28;;;11.30;69.60
74913;BME280;63878;55.624;37.304;2023-07-13T17:16:02;98036.19;;;11.13;70.92
74913;BME280;63878;55.624;37.304;2023-07-13T17:26:03;98039.31;;;11.33;71.43
74913;BME280;63878;55.624;37.304;2023-07-13T17:36:14;98046.34;;;11.65;69.36
74913;BME280;63878;55.624;37.304;2023-07-13T17:46:17;98009.09;;;11.03;71.55
74913;BME280;63878;55.624;37.304;2023-07-13T17:56:18;98030.41;;;11.01;71.42
74913;BME280;63878;55.624;37.304;2023-07-13T18:06:26;98051.53;;;11.26;71.99
74913;BME280;63878;55.624;37.304;2023-07-13T18:16:28;98036.19;;;10.89;72.97
74913;BME280;63878;55.624;37.304;2023-07-13T18:26:29;98046.09;;;10.87;73.08
74913;BME280;63878;55.624;37.304;2023-07-13T18:36:30;98046.06;;;11.03;72.79
74913;BME280;63878;55.624;37.304;2023-07-13T18:46:31;98074.47;;;11.42;74.49
74913;BME280;63878;55.624;37.304;2023-07-13T18:56:32;98061.34;;;11.89;68.16
74913;BME280;63878;55.624;37.304;2023-07-13T19:06:33;98089.47;;;11.74;67.79
74913;BME280;63878;55.624;37.304;2023-07-13T19:16:33;98089.78;;;11.87;68.40
74913;BME280;63878;55.624;37.304;2023-07-13T19:26:36;98086.00;;;11.65;68.10
74913;BME280;63878;55.624;37.304;2023-07-13T19:36:38;98067.16;;;11.76;68.23
74913;BME280;63878;55.624;37.304;2023-07-13T19:46:39;98065.59;;;12.06;69.37
74913;BME280;63878;55.624;37.304;2023-07-13T19:56:40;98072.03;;;12.04;68.48
74913;BME280;63878;55.624;37.304;2023-07-13T20:06:41;98073.78;;;11.72;67.17
74913;BME280;63878;55.624;37.304;2023-07-13T20:16:41;98061.72;;;11.70;67.19
74913;BME280;63878;55.624;37.304;2023-07-13T20:26:43;98092.91;;;11.82;71.11
74913;BME280;63878;55.624;37.304;2023-07-13T20:36:44;98099.69;;;11.77;67.52
74913;BME280;63878;55.624;37.304;2023-07-13T20:46:44;98106.13;;;11.58;69.37
74913;BME280;63878;55.624;37.304;2023-07-13T20:56:45;98113.72;;;11.69;68.67
74913;BME280;63878;55.624;37.304;2023-07-13T21:06:45;98105.81;;;11.77;67.98
74913;BME280;63878;55.624;37.304;2023-07-13T21:16:46;98100.03;;;11.82;70.23
74913;BME280;63878;55.624;37.304;2023-07-13T21:26:46;98103.03;;;11.79;68.51
74913;BME280;63878;55.624;37.304;2023-07-13T21:36:47;98085.66;;;11.76;69.42
74913;BME280;63878;55.624;37.304;2023-07-13T21:46:47;98098.31;;;11.97;70.81
74913;BME280;63878;55.624;37.304;2023-07-13T21:56:48;98066.91;;;12.02;71.18
74913;BME280;63878;55.624;37.304;2023-07-13T22:06:49;98070.09;;;11.89;67.58
74913;BME280;63878;55.624;37.304;2023-07-13T22:16:50;98051.28;;;11.68;71.61
74913;BME280;63878;55.624;37.304;2023-07-13T22:26:50;98059.00;;;11.94;69.97
74913;BME280;63878;55.624;37.304;2023-07-13T22:36:51;98064.25;;;12.02;71.16
74913;BME280;63878;55.624;37.304;2023-07-13T22:46:53;98067.56;;;12.04;71.90
74913;BME280;63878;55.624;37.304;2023-07-13T22:56:54;98058.00;;;11.95;71.38
74913;BME280;63878;55.624;37.304;2023-07-13T23:06:55;98054.16;;;11.10;69.48
74913;BME280;63878;55.624;37.304;2023-07-13T23:16:56;98052.31;;;11.51;70.55
74913;BME280;63878;55.624;37.304;2023-07-13T23:26:57;98050.47;;;11.68;68.91
74913;BME280;63878;55.624;37.304;2023-07-13T23:36:57;98053.78;;;11.70;71.24
74913;BME280;63878;55.624;37.304;2023-07-13T23:46:58;98059.53;;;11.81;71.42
74913;BME280;63878;55.624;37.304;2023-07-13T23:56:59;98046.97;;;11.83;70.58
